Time;durP1;ratioP1;P1;durP2;ratioP2;P2;SDS_P1;SDS_P2;PMS_P1;PMS_P2;Temp;Humidity;BMP_temperature;BMP_pressure;BME280_temperature;BME280_humidity;BME280_pressure;Samples;Min_cycle;Max_cycle;Signal;HPM_P1;HPM_P2
2021/01/09 00:00:52;;;;;;;19.15;12.57;;;2.00;99.90;;;;;;5064122;28;20226;-84
2021/01/09 00:03:19;;;;;;;19.67;12.07;;;1.90;99.90;;;;;;5064247;28;20632;-84
2021/01/09 00:05:45;;;;;;;20.17;12.55;;;2.00;99.90;;;;;;5064312;28;20274;-83
2021/01/09 00:08:12;;;;;;;27.23;13.88;;;2.00;99.90;;;;;;5068878;28;20206;-83
2021/01/09 00:10:38;;;;;;;16.65;11.50;;;1.90;99.90;;;;;;5064402;28;20577;-84
2021/01/09 00:13:08;;;;;;;17.67;12.57;;;1.80;99.90;;;;;;5064342;28;20248;-84
2021/01/09 00:15:34;;;;;;;19.42;12.43;;;1.90;99.90;;;;;;5063359;28;20219;-85
2021/01/09 00:18:00;;;;;;;19.55;12.85;;;1.80;99.90;;;;;;5062693;28;20270;-84
2021/01/09 00:20:27;;;;;;;21.08;11.40;;;1.90;99.90;;;;;;5062999;28;20270;-85
2021/01/09 00:22:53;;;;;;;14.00;10.35;;;2.00;99.90;;;;;;5062331;28;20585;-84
2021/01/09 00:25:21;;;;;;;16.45;11.75;;;2.00;99.90;;;;;;5064718;28;20254;-84
2021/01/09 00:27:47;;;;;;;19.77;11.13;;;1.90;99.90;;;;;;5066335;28;20207;-84
2021/01/09 00:30:16;;;;;;;18.50;11.40;;;2.00;99.90;;;;;;5064918;28;20549;-84
2021/01/09 00:32:42;;;;;;;17.67;10.52;;;1.90;99.90;;;;;;5066953;28;20233;-84
2021/01/09 00:35:09;;;;;;;13.82;9.82;;;2.00;99.90;;;;;;5080457;28;20238;-84
2021/01/09 00:37:36;;;;;;;16.85;10.48;;;2.10;99.90;;;;;;5080352;28;20248;-84
2021/01/09 00:40:03;;;;;;;19.40;11.85;;;2.00;99.90;;;;;;5074724;28;20229;-85
2021/01/09 00:42:30;;;;;;;18.33;11.50;;;1.90;99.90;;;;;;5079659;28;20241;-83
2021/01/09 00:44:56;;;;;;;22.30;14.48;;;1.90;99.90;;;;;;5066832;28;20271;-84
2021/01/09 00:47:23;;;;;;;15.55;11.10;;;1.90;99.90;;;;;;5065648;28;20203;-83
2021/01/09 00:49:49;;;;;;;16.25;11.80;;;1.90;99.90;;;;;;5072228;28;20282;-84
2021/01/09 00:52:15;;;;;;;16.55;12.27;;;1.90;99.90;;;;;;5074183;28;20227;-84
2021/01/09 00:54:41;;;;;;;16.67;11.25;;;1.80;99.90;;;;;;5067064;28;20286;-84
2021/01/09 00:57:08;;;;;;;14.90;10.57;;;1.80;99.90;;;;;;5064535;28;20203;-85
2021/01/09 00:59:35;;;;;;;18.00;10.65;;;1.90;99.90;;;;;;5062342;28;20736;-87
2021/01/09 01:02:02;;;;;;;15.18;11.25;;;1.80;99.90;;;;;;5067873;28;20245;-87
2021/01/09 01:04:28;;;;;;;21.15;12.55;;;1.90;99.90;;;;;;5070124;28;20257;-87
2021/01/09 01:06:55;;;;;;;18.83;14.23;;;1.90;99.90;;;;;;5071820;28;20234;-84
2021/01/09 01:09:21;;;;;;;13.35;9.52;;;1.90;99.90;;;;;;5071724;28;20213;-84
2021/01/09 01:11:48;;;;;;;16.27;9.90;;;2.00;99.90;;;;;;5074531;28;20219;-84
2021/01/09 01:14:14;;;;;;;14.82;9.82;;;1.90;99.90;;;;;;5075528;28;20223;-83
2021/01/09 01:16:44;;;;;;;13.52;9.68;;;2.00;99.90;;;;;;5079842;28;20194;-84
2021/01/09 01:19:11;;;;;;;16.20;11.15;;;1.90;99.90;;;;;;5074556;28;20199;-84
2021/01/09 01:21:37;;;;;;;15.35;11.13;;;1.90;99.90;;;;;;5076873;28;20203;-84
2021/01/09 01:24:08;;;;;;;15.98;10.57;;;1.90;99.90;;;;;;5076720;28;20221;-88
2021/01/09 01:26:34;;;;;;;18.83;11.30;;;1.90;99.90;;;;;;5078497;28;20254;-87
2021/01/09 01:29:03;;;;;;;16.60;9.60;;;1.80;99.90;;;;;;5076922;28;20236;-88
2021/01/09 01:31:30;;;;;;;13.90;10.80;;;1.90;99.90;;;;;;5075307;22;20238;-83
2021/01/09 01:33:57;;;;;;;16.27;11.48;;;1.90;99.90;;;;;;5058738;28;20239;-84
2021/01/09 01:36:23;;;;;;;16.15;11.05;;;2.00;99.90;;;;;;5060144;28;20203;-85
2021/01/09 01:38:50;;;;;;;14.40;9.50;;;2.00;99.90;;;;;;5059918;28;20207;-83
2021/01/09 01:41:16;;;;;;;14.75;10.52;;;1.90;99.90;;;;;;5059356;28;20222;-83
2021/01/09 01:43:43;;;;;;;13.30;9.20;;;1.80;99.90;;;;;;5059360;28;20651;-83
2021/01/09 01:46:11;;;;;;;16.40;11.75;;;1.80;99.90;;;;;;5040652;28;20210;-84
2021/01/09 01:48:38;;;;;;;14.95;10.60;;;1.90;99.90;;;;;;5057859;28;20578;-82
2021/01/09 01:51:06;;;;;;;15.32;10.23;;;1.80;99.90;;;;;;5058075;28;20223;-82
2021/01/09 01:53:33;;;;;;;15.75;10.30;;;1.80;99.90;;;;;;5057990;28;20235;-83
2021/01/09 01:56:00;;;;;;;14.63;10.27;;;1.90;99.90;;;;;;5058336;28;20569;-82
2021/01/09 01:58:26;;;;;;;14.63;10.70;;;2.00;99.90;;;;;;5059002;28;20206;-82
2021/01/09 02:00:52;;;;;;;15.57;10.38;;;2.00;99.90;;;;;;5057504;28;20227;-85
2021/01/09 02:03:20;;;;;;;16.08;10.70;;;2.00;99.90;;;;;;5058078;28;20289;-83
2021/01/09 02:05:56;;;;;;;15.15;9.68;;;2.00;99.90;;;;;;5064606;28;20199;-85
2021/01/09 02:08:28;;;;;;;16.70;11.45;;;2.00;99.90;;;;;;5073443;28;20190;-85
2021/01/09 02:10:59;;;;;;;12.05;9.45;;;2.00;99.90;;;;;;5067925;28;20227;-84
2021/01/09 02:13:32;;;;;;;14.70;9.82;;;2.00;99.90;;;;;;5063684;28;20255;-84
2021/01/09 02:15:59;;;;;;;15.65;10.00;;;1.90;99.90;;;;;;5059872;28;20667;-84
2021/01/09 02:18:26;;;;;;;13.38;9.50;;;1.80;99.90;;;;;;5059222;28;20544;-84
2021/01/09 02:21:05;;;;;;;13.82;9.23;;;1.80;99.90;;;;;;5066212;28;20662;-84
2021/01/09 02:23:33;;;;;;;12.05;8.52;;;1.80;99.90;;;;;;5060506;28;20202;-83
2021/01/09 02:25:59;;;;;;;15.73;10.75;;;1.80;99.90;;;;;;5059146;28;20214;-84
2021/01/09 02:28:26;;;;;;;12.18;9.48;;;1.80;99.90;;;;;;5058915;28;20203;-84
2021/01/09 02:30:53;;;;;;;16.25;10.10;;;1.90;99.90;;;;;;5058835;28;20238;-85
2021/01/09 02:33:22;;;;;;;13.25;9.15;;;1.80;99.90;;;;;;5059316;28;20687;-84
2021/01/09 02:35:49;;;;;;;16.77;9.90;;;1.80;99.90;;;;;;5057625;28;20207;-84
2021/01/09 02:38:15;;;;;;;9.68;7.82;;;1.80;99.90;;;;;;5057790;28;20289;-84
2021/01/09 02:40:43;;;;;;;14.48;9.80;;;1.70;99.90;;;;;;5057389;28;20234;-84
2021/01/09 02:43:11;;;;;;;14.00;10.15;;;1.70;99.90;;;;;;5056936;28;20203;-84
2021/01/09 02:45:38;;;;;;;13.30;9.27;;;1.70;99.90;;;;;;5056991;28;20206;-84
2021/01/09 02:48:05;;;;;;;14.88;10.13;;;1.70;99.90;;;;;;5057276;28;20677;-84
2021/01/09 02:50:31;;;;;;;15.30;10.63;;;1.70;99.90;;;;;;5057537;28;20226;-84
2021/01/09 02:52:57;;;;;;;15.52;10.30;;;1.60;99.90;;;;;;5057331;28;20227;-84
2021/01/09 02:55:23;;;;;;;21.00;11.25;;;1.60;99.90;;;;;;5062177;28;20206;-84
2021/01/09 02:57:51;;;;;;;15.35;9.57;;;1.60;99.90;;;;;;5072126;28;20234;-84
2021/01/09 03:00:19;;;;;;;16.63;10.88;;;1.60;99.90;;;;;;5066555;28;20227;-84
2021/01/09 03:02:45;;;;;;;15.13;10.00;;;1.60;99.90;;;;;;5058201;28;20203;-84
2021/01/09 03:05:12;;;;;;;15.43;10.20;;;1.60;99.90;;;;;;5057142;28;20221;-84
2021/01/09 03:07:38;;;;;;;14.07;10.50;;;1.50;99.90;;;;;;5057604;28;20203;-84
2021/01/09 03:10:06;;;;;;;16.85;10.35;;;1.60;99.90;;;;;;5056864;28;20739;-84
2021/01/09 03:12:32;;;;;;;17.65;11.30;;;1.60;99.90;;;;;;5057332;28;20218;-84
2021/01/09 03:14:59;;;;;;;17.63;11.40;;;1.60;99.90;;;;;;5057302;28;20302;-85
2021/01/09 03:17:26;;;;;;;19.13;11.32;;;1.60;99.90;;;;;;5056754;28;20198;-84
2021/01/09 03:19:52;;;;;;;15.23;10.82;;;1.50;99.90;;;;;;5056827;28;20227;-84
2021/01/09 03:22:18;;;;;;;19.35;11.68;;;1.50;99.90;;;;;;5057095;28;20203;-84
2021/01/09 03:24:45;;;;;;;21.67;12.23;;;1.50;99.90;;;;;;5056677;28;20577;-85
2021/01/09 03:27:11;;;;;;;14.65;9.65;;;1.60;99.90;;;;;;5056991;28;20207;-84
2021/01/09 03:29:37;;;;;;;20.10;11.57;;;1.60;99.90;;;;;;5062292;28;20267;-85
2021/01/09 03:32:05;;;;;;;14.60;10.50;;;1.60;99.90;;;;;;5067199;28;20313;-84
2021/01/09 03:34:31;;;;;;;16.15;10.50;;;1.60;99.90;;;;;;5067955;28;20621;-84
2021/01/09 03:36:58;;;;;;;17.00;10.13;;;1.60;99.90;;;;;;5068760;28;20209;-84
2021/01/09 03:39:24;;;;;;;18.38;10.27;;;1.60;99.90;;;;;;5059793;28;20234;-85
2021/01/09 03:41:50;;;;;;;15.98;10.57;;;1.70;99.90;;;;;;5058743;28;20303;-84
2021/01/09 03:44:17;;;;;;;14.65;11.10;;;1.70;99.90;;;;;;5059644;28;20206;-84
2021/01/09 03:46:43;;;;;;;17.50;11.27;;;1.70;99.90;;;;;;5060786;28;20214;-84
2021/01/09 03:49:10;;;;;;;18.52;12.05;;;1.70;99.90;;;;;;5058824;28;20703;-84
2021/01/09 03:51:36;;;;;;;13.32;10.10;;;1.70;99.90;;;;;;5065303;28;20291;-84
2021/01/09 03:54:03;;;;;;;15.63;10.70;;;1.60;99.90;;;;;;5069670;28;20221;-84
2021/01/09 03:56:29;;;;;;;14.60;10.60;;;1.60;99.90;;;;;;5066285;28;20316;-84
2021/01/09 03:58:55;;;;;;;19.15;11.98;;;1.70;99.90;;;;;;5059630;28;20290;-84
2021/01/09 04:01:21;;;;;;;15.60;10.57;;;1.80;99.90;;;;;;5058640;28;20254;-84
2021/01/09 04:03:48;;;;;;;13.15;9.52;;;1.80;99.90;;;;;;5060789;28;20687;-84
2021/01/09 04:06:15;;;;;;;14.73;9.75;;;1.70;99.90;;;;;;5065098;28;20267;-84
2021/01/09 04:08:41;;;;;;;12.98;9.63;;;1.70;99.90;;;;;;5075751;28;20281;-84
2021/01/09 04:11:07;;;;;;;13.02;8.98;;;1.60;99.90;;;;;;5077636;28;20340;-83
2021/01/09 04:13:34;;;;;;;13.82;9.40;;;1.60;99.90;;;;;;5065435;28;20199;-85
2021/01/09 04:16:02;;;;;;;10.77;7.60;;;1.50;99.90;;;;;;5064911;28;20207;-84
2021/01/09 04:18:36;;;;;;;12.38;8.73;;;1.50;99.90;;;;;;5065262;28;20341;-85
2021/01/09 04:21:03;;;;;;;16.02;9.30;;;1.50;99.90;;;;;;5067812;28;20230;-84
2021/01/09 04:23:30;;;;;;;13.45;9.02;;;1.60;99.90;;;;;;5075756;28;20203;-85
2021/01/09 04:25:56;;;;;;;13.10;8.75;;;1.60;99.90;;;;;;5065914;28;20203;-85
2021/01/09 04:28:25;;;;;;;13.13;8.43;;;1.60;99.90;;;;;;5062749;28;20577;-85
2021/01/09 04:30:52;;;;;;;13.63;8.85;;;1.70;99.90;;;;;;5062040;28;20246;-84
2021/01/09 04:33:18;;;;;;;13.88;8.77;;;1.70;99.90;;;;;;5061519;28;20203;-84
2021/01/09 04:35:44;;;;;;;13.75;9.02;;;1.60;99.90;;;;;;5061317;28;20270;-84
2021/01/09 04:38:11;;;;;;;17.27;9.77;;;1.60;99.90;;;;;;5060996;28;20345;-85
2021/01/09 04:40:38;;;;;;;13.57;9.50;;;1.60;99.90;;;;;;5061054;28;20223;-84
2021/01/09 04:43:04;;;;;;;15.70;9.25;;;1.60;99.90;;;;;;5060701;28;20256;-84
2021/01/09 04:45:31;;;;;;;13.43;9.35;;;1.60;99.90;;;;;;5060695;28;20229;-85
2021/01/09 04:47:59;;;;;;;13.50;9.07;;;1.60;99.90;;;;;;5062010;28;20286;-86
2021/01/09 04:50:26;;;;;;;14.52;9.32;;;1.50;99.90;;;;;;5060794;28;20318;-86
2021/01/09 04:52:53;;;;;;;15.02;10.38;;;1.50;99.90;;;;;;5061287;28;20664;-86
2021/01/09 04:55:20;;;;;;;14.02;9.60;;;1.50;99.90;;;;;;5060849;28;20218;-86
2021/01/09 04:57:47;;;;;;;13.35;8.98;;;1.50;99.90;;;;;;5065654;28;20203;-86
2021/01/09 05:00:15;;;;;;;14.77;9.43;;;1.60;99.90;;;;;;5070083;28;20235;-86
2021/01/09 05:02:42;;;;;;;10.57;8.18;;;1.60;99.90;;;;;;5068442;28;20224;-87
2021/01/09 05:05:09;;;;;;;12.90;9.02;;;1.60;99.90;;;;;;5065860;28;20230;-87
2021/01/09 05:07:36;;;;;;;11.90;8.38;;;1.60;99.90;;;;;;5060754;28;20211;-88
2021/01/09 05:10:04;;;;;;;11.27;8.27;;;1.60;99.90;;;;;;5062814;28;20695;-88
2021/01/09 05:12:46;;;;;;;13.63;8.35;;;1.60;99.90;;;;;;5060076;28;20227;-91
2021/01/09 05:15:38;;;;;;;12.00;8.65;;;1.50;99.90;;;;;;5061667;28;20202;-88
2021/01/09 05:18:19;;;;;;;11.85;8.65;;;1.60;99.90;;;;;;5058632;28;20566;-88
2021/01/09 05:20:46;;;;;;;10.90;8.45;;;1.60;99.90;;;;;;5062355;28;20227;-88
2021/01/09 05:23:19;;;;;;;10.02;7.93;;;1.60;99.90;;;;;;5063329;28;20229;-88
2021/01/09 05:26:04;;;;;;;12.73;8.35;;;1.70;99.90;;;;;;5059632;28;20183;-88
2021/01/09 05:28:41;;;;;;;12.98;8.93;;;1.60;99.90;;;;;;5059542;28;20549;-88
2021/01/09 05:34:10;;;;;;;11.55;7.72;;;1.70;99.90;;;;;;5061120;28;20211;-88
2021/01/09 05:36:43;;;;;;;13.05;9.02;;;1.60;99.90;;;;;;5063386;28;20208;-88
2021/01/09 05:39:16;;;;;;;11.88;8.50;;;1.50;99.90;;;;;;5060645;28;20184;-88
2021/01/09 05:44:45;;;;;;;11.68;8.77;;;1.50;99.90;;;;;;5058059;28;20237;-88
2021/01/09 05:47:40;;;;;;;10.73;8.20;;;1.60;99.90;;;;;;5058989;28;20191;-88
2021/01/09 05:50:20;;;;;;;11.20;8.70;;;1.50;99.90;;;;;;5057261;28;20439;-86
2021/01/09 05:53:04;;;;;;;9.75;7.93;;;1.50;99.90;;;;;;5059144;28;20233;-87
2021/01/09 05:58:58;;;;;;;12.27;7.40;;;1.50;99.90;;;;;;5064485;28;20211;-86
2021/01/09 06:01:39;;;;;;;10.20;7.75;;;1.60;99.90;;;;;;5058196;28;20226;-86
2021/01/09 06:04:16;;;;;;;11.65;7.57;;;1.60;99.90;;;;;;5056737;28;20958;-86
2021/01/09 06:06:49;;;;;;;13.65;8.25;;;1.60;99.90;;;;;;5057589;28;20214;-87
2021/01/09 06:09:24;;;;;;;11.85;7.45;;;1.70;99.90;;;;;;5057209;28;20282;-87
2021/01/09 06:11:58;;;;;;;10.90;7.43;;;1.70;99.90;;;;;;5058098;28;20226;-87
2021/01/09 06:14:31;;;;;;;9.95;8.23;;;1.80;99.90;;;;;;5057585;28;20210;-87
2021/01/09 06:17:07;;;;;;;11.80;7.85;;;1.70;99.90;;;;;;5056461;28;20424;-88
2021/01/09 06:19:42;;;;;;;11.43;7.35;;;1.70;99.90;;;;;;5056729;28;20278;-88
2021/01/09 06:22:38;;;;;;;8.40;6.95;;;1.70;99.90;;;;;;5016045;28;20199;-88
2021/01/09 06:25:47;;;;;;;10.45;7.93;;;1.70;99.90;;;;;;5059479;28;20217;-87
2021/01/09 06:28:20;;;;;;;10.77;7.95;;;1.70;99.90;;;;;;5056440;28;20454;-87
2021/01/09 06:31:05;;;;;;;9.43;7.30;;;1.80;99.90;;;;;;5060401;28;20432;-87
2021/01/09 06:33:39;;;;;;;10.98;7.72;;;1.80;99.90;;;;;;5056564;28;20699;-87
2021/01/09 06:36:19;;;;;;;10.75;7.53;;;1.80;99.90;;;;;;5068918;28;20215;-88
2021/01/09 06:39:00;;;;;;;10.23;7.65;;;1.80;99.90;;;;;;5066581;28;20183;-88
2021/01/09 06:41:41;;;;;;;10.05;6.78;;;2.00;99.90;;;;;;5056322;28;20277;-87
2021/01/09 06:44:32;;;;;;;11.00;7.47;;;1.80;99.90;;;;;;5056538;28;20686;-87
2021/01/09 06:47:26;;;;;;;8.85;6.75;;;1.80;99.90;;;;;;5055738;28;20575;-87
2021/01/09 06:49:53;;;;;;;9.63;6.90;;;1.80;99.90;;;;;;5054773;28;20219;-87
2021/01/09 06:53:00;;;;;;;10.88;6.43;;;1.90;99.90;;;;;;5055603;28;20227;-87
2021/01/09 06:56:06;;;;;;;8.23;6.10;;;1.70;99.90;;;;;;5055583;28;20207;-88
2021/01/09 06:58:32;;;;;;;11.48;6.43;;;1.80;99.90;;;;;;5026101;28;20206;-87
2021/01/09 08:00:22;;;;;;;14.57;10.40;;;2.10;99.90;;;;;;5120735;28;20209;-86
2021/01/09 08:02:50;;;;;;;8.48;5.82;;;2.00;99.90;;;;;;5125889;28;20197;-85
2021/01/09 08:05:20;;;;;;;6.18;5.50;;;1.80;99.90;;;;;;5122663;28;20291;-85
2021/01/09 08:07:48;;;;;;;7.60;5.85;;;1.80;99.90;;;;;;5123508;28;20247;-85
2021/01/09 08:10:24;;;;;;;8.65;6.57;;;1.70;99.90;;;;;;5124389;28;20834;-85
2021/01/09 08:12:58;;;;;;;9.52;7.68;;;2.00;99.90;;;;;;5123991;28;20205;-85
2021/01/09 08:15:27;;;;;;;8.38;6.07;;;2.00;99.90;;;;;;5125240;28;20185;-85
2021/01/09 08:17:53;;;;;;;7.97;6.07;;;2.00;99.90;;;;;;5123970;28;20312;-84
2021/01/09 08:20:20;;;;;;;8.88;7.15;;;2.00;99.90;;;;;;5124978;28;20342;-85
2021/01/09 08:22:52;;;;;;;11.27;8.20;;;2.20;99.90;;;;;;5130222;28;20614;-86
2021/01/09 08:25:19;;;;;;;11.10;8.05;;;2.10;99.90;;;;;;5140253;28;20200;-85
2021/01/09 08:27:50;;;;;;;10.07;7.72;;;2.20;99.90;;;;;;5138632;27;20223;-86
2021/01/09 08:30:22;;;;;;;12.02;8.27;;;2.00;99.90;;;;;;5130454;28;20276;-86
2021/01/09 08:32:49;;;;;;;10.85;8.02;;;2.10;99.90;;;;;;5131128;28;20201;-85
2021/01/09 08:35:17;;;;;;;11.63;8.65;;;2.20;99.90;;;;;;5127523;28;20209;-85
2021/01/09 08:37:49;;;;;;;10.30;7.43;;;2.00;99.90;;;;;;5126969;28;20219;-86
2021/01/09 08:40:19;;;;;;;11.27;7.57;;;2.00;99.90;;;;;;5126113;28;20212;-86
2021/01/09 08:42:56;;;;;;;12.70;8.50;;;2.00;99.90;;;;;;5125656;28;20188;-86
2021/01/09 08:45:43;;;;;;;12.40;8.00;;;2.00;99.90;;;;;;5125458;28;20197;-86
2021/01/09 08:48:15;;;;;;;12.68;8.38;;;1.90;99.90;;;;;;5125060;28;20203;-86
2021/01/09 08:50:55;;;;;;;11.00;8.52;;;2.00;99.90;;;;;;5125221;28;20222;-86
2021/01/09 08:53:21;;;;;;;10.00;7.80;;;2.00;99.90;;;;;;5125556;28;20258;-87
2021/01/09 08:55:51;;;;;;;12.38;8.95;;;1.90;99.90;;;;;;5125154;28;20204;-85
2021/01/09 08:58:17;;;;;;;12.52;8.55;;;2.00;99.90;;;;;;5124118;28;20372;-85
2021/01/09 09:00:43;;;;;;;9.57;8.48;;;2.20;99.90;;;;;;5125121;28;20189;-85
2021/01/09 09:03:13;;;;;;;9.77;7.60;;;2.10;99.90;;;;;;5124090;28;20235;-86
2021/01/09 09:05:40;;;;;;;15.73;9.00;;;2.20;99.90;;;;;;5125461;28;20205;-86
2021/01/09 09:08:12;;;;;;;12.73;8.70;;;2.20;99.90;;;;;;5125828;28;20212;-85
2021/01/09 09:10:40;;;;;;;12.02;9.35;;;2.20;99.90;;;;;;5125110;28;20189;-86
2021/01/09 09:13:20;;;;;;;11.63;9.25;;;2.30;99.90;;;;;;5125427;28;20231;-85
2021/01/09 09:15:47;;;;;;;13.05;8.77;;;2.30;99.90;;;;;;5125570;28;20189;-85
2021/01/09 09:18:15;;;;;;;12.82;9.52;;;2.20;99.90;;;;;;5125083;28;20280;-85
2021/01/09 09:20:49;;;;;;;11.70;9.50;;;2.20;99.90;;;;;;5125411;28;20677;-85
2021/01/09 09:23:21;;;;;;;12.75;9.07;;;2.20;99.90;;;;;;5124580;28;20216;-86
2021/01/09 09:26:06;;;;;;;12.57;9.32;;;2.30;99.90;;;;;;5124832;28;20688;-85
2021/01/09 09:28:53;;;;;;;11.90;8.82;;;2.30;99.90;;;;;;5124619;28;20244;-86
2021/01/09 09:31:22;;;;;;;11.45;8.60;;;2.20;99.90;;;;;;5125359;28;20276;-86
2021/01/09 09:34:12;;;;;;;15.80;10.07;;;2.10;99.90;;;;;;5125959;28;20223;-86
2021/01/09 09:37:00;;;;;;;18.08;10.70;;;2.00;99.90;;;;;;5125878;28;20685;-85
2021/01/09 09:39:27;;;;;;;17.95;11.13;;;2.10;99.90;;;;;;5128125;28;20229;-86
2021/01/09 09:41:57;;;;;;;13.45;9.50;;;2.10;99.90;;;;;;5126702;28;20204;-86
2021/01/09 09:44:34;;;;;;;19.38;11.30;;;2.10;99.90;;;;;;5126840;28;20234;-86
2021/01/09 09:47:01;;;;;;;24.10;12.95;;;2.00;99.90;;;;;;5129882;28;20203;-86
2021/01/09 09:49:29;;;;;;;18.15;12.07;;;1.90;99.90;;;;;;5128903;28;20225;-86
2021/01/09 09:51:56;;;;;;;18.17;13.50;;;2.00;99.90;;;;;;5128963;28;20238;-86
2021/01/09 09:54:30;;;;;;;22.70;12.85;;;2.00;99.90;;;;;;5127823;28;20287;-87
2021/01/09 09:56:56;;;;;;;19.63;12.73;;;2.00;99.90;;;;;;5126835;28;20282;-86
2021/01/09 09:59:29;;;;;;;20.98;11.90;;;1.90;99.90;;;;;;5125314;28;20244;-86
2021/01/09 10:02:00;;;;;;;20.20;13.55;;;2.00;99.90;;;;;;5125949;28;20242;-87
2021/01/09 10:04:27;;;;;;;23.33;13.48;;;2.00;99.90;;;;;;5124543;28;20204;-86
2021/01/09 10:06:54;;;;;;;22.02;12.60;;;2.10;99.90;;;;;;5125445;28;20222;-86
2021/01/09 10:09:24;;;;;;;27.17;12.52;;;2.20;99.90;;;;;;5124060;28;20293;-87
2021/01/09 10:11:52;;;;;;;21.25;12.80;;;2.20;99.90;;;;;;5124178;28;20248;-86
2021/01/09 10:14:19;;;;;;;25.10;15.10;;;2.00;99.90;;;;;;5128032;28;20251;-85
2021/01/09 10:16:45;;;;;;;21.15;13.02;;;2.00;99.90;;;;;;5136482;28;20205;-86
2021/01/09 10:19:14;;;;;;;31.27;14.35;;;2.00;99.90;;;;;;5131092;28;20250;-86
2021/01/09 10:21:40;;;;;;;30.33;14.77;;;1.80;99.90;;;;;;5124410;28;20562;-86
2021/01/09 10:24:08;;;;;;;32.50;18.13;;;1.80;99.90;;;;;;5125594;28;20220;-87
2021/01/09 10:26:35;;;;;;;27.98;13.85;;;1.80;99.90;;;;;;5123947;28;20201;-86
2021/01/09 10:29:03;;;;;;;28.52;15.02;;;1.80;99.90;;;;;;5125360;28;20247;-86
2021/01/09 10:31:32;;;;;;;30.20;13.82;;;1.90;99.90;;;;;;5123761;28;20201;-87
2021/01/09 10:33:58;;;;;;;28.00;13.02;;;2.00;99.90;;;;;;5124864;28;20264;-87
2021/01/09 10:36:26;;;;;;;31.92;15.48;;;2.00;99.90;;;;;;5124873;28;20208;-86
2021/01/09 10:38:53;;;;;;;29.23;13.93;;;2.10;99.90;;;;;;5124950;28;20225;-86
2021/01/09 10:41:21;;;;;;;24.58;13.80;;;2.20;99.90;;;;;;5124417;28;20204;-86
2021/01/09 10:43:47;;;;;;;31.10;15.07;;;2.20;99.90;;;;;;5128091;28;20287;-85
2021/01/09 10:46:20;;;;;;;25.98;14.75;;;2.10;99.90;;;;;;5136853;27;20200;-85
2021/01/09 10:48:46;;;;;;;28.30;14.80;;;2.10;99.90;;;;;;5133481;28;20439;-87
2021/01/09 10:51:16;;;;;;;33.13;15.70;;;2.10;99.90;;;;;;5131602;28;20258;-86
2021/01/09 10:53:46;;;;;;;29.83;15.32;;;2.00;99.90;;;;;;5126330;28;20224;-85
2021/01/09 10:56:12;;;;;;;33.65;17.48;;;1.90;99.90;;;;;;5121572;28;20498;-85
2021/01/09 10:58:40;;;;;;;27.98;17.00;;;2.00;99.90;;;;;;5123112;28;21105;-86
2021/01/09 11:01:10;;;;;;;30.88;16.65;;;2.10;99.90;;;;;;5123409;28;20200;-87
2021/01/09 11:03:36;;;;;;;25.08;14.23;;;2.10;99.90;;;;;;5123476;28;20193;-86
2021/01/09 11:06:03;;;;;;;28.40;16.90;;;2.10;99.90;;;;;;5124070;28;20196;-85
2021/01/09 11:08:29;;;;;;;33.75;14.70;;;2.20;99.90;;;;;;5124372;28;20224;-86
2021/01/09 11:10:56;;;;;;;24.95;14.02;;;2.10;99.90;;;;;;5125079;28;20234;-86
2021/01/09 11:13:22;;;;;;;30.20;15.68;;;2.20;99.90;;;;;;5131123;28;20221;-86
2021/01/09 11:15:51;;;;;;;30.20;16.50;;;2.40;99.90;;;;;;5135393;28;20470;-86
2021/01/09 11:18:18;;;;;;;34.45;15.60;;;2.30;99.90;;;;;;5128296;28;20221;-86
2021/01/09 11:20:46;;;;;;;30.85;17.50;;;2.30;99.90;;;;;;5125454;28;20435;-85
2021/01/09 11:23:21;;;;;;;29.80;17.65;;;2.30;99.90;;;;;;5125053;28;20447;-86
2021/01/09 11:25:49;;;;;;;31.65;17.60;;;2.30;99.90;;;;;;5131362;28;20253;-86
2021/01/09 11:28:16;;;;;;;33.15;17.35;;;2.30;99.90;;;;;;5135325;28;20249;-86
2021/01/09 11:30:48;;;;;;;30.60;16.48;;;2.30;99.90;;;;;;5130530;28;20882;-87
2021/01/09 11:33:16;;;;;;;27.85;16.48;;;2.30;99.90;;;;;;5125141;28;20209;-86
2021/01/09 11:35:42;;;;;;;31.48;17.48;;;2.30;99.90;;;;;;5126131;28;20258;-86
2021/01/09 11:38:08;;;;;;;28.02;15.40;;;2.30;99.90;;;;;;5126318;28;20205;-86
2021/01/09 11:40:35;;;;;;;28.67;16.80;;;2.20;99.90;;;;;;5124386;28;20292;-86
2021/01/09 11:43:01;;;;;;;39.50;20.00;;;2.30;99.90;;;;;;5125399;28;20459;-87
2021/01/09 11:45:28;;;;;;;34.40;16.98;;;2.30;99.90;;;;;;5126363;28;20445;-86
2021/01/09 11:47:57;;;;;;;31.25;16.55;;;2.40;99.90;;;;;;5126924;28;20204;-86
2021/01/09 11:50:28;;;;;;;30.75;16.30;;;2.50;99.90;;;;;;5129328;28;20201;-85
2021/01/09 11:52:55;;;;;;;28.17;14.77;;;2.40;99.90;;;;;;5127921;28;20229;-87
2021/01/09 11:55:22;;;;;;;21.90;12.35;;;2.30;99.90;;;;;;5128763;28;20660;-85
2021/01/09 11:57:48;;;;;;;25.15;13.63;;;2.40;99.90;;;;;;5128350;28;20205;-86
2021/01/09 12:00:15;;;;;;;21.20;13.05;;;2.50;99.90;;;;;;5125667;28;20252;-87
2021/01/09 12:02:44;;;;;;;20.58;13.57;;;2.60;99.90;;;;;;5124833;28;20795;-86
2021/01/09 12:05:11;;;;;;;22.30;13.68;;;2.70;99.90;;;;;;5124260;28;20442;-86
2021/01/09 12:07:38;;;;;;;19.80;13.32;;;2.60;99.90;;;;;;5125149;28;20228;-86
2021/01/09 12:10:07;;;;;;;19.85;12.00;;;2.70;99.90;;;;;;5124981;28;20469;-86
2021/01/09 12:12:34;;;;;;;21.30;12.68;;;2.50;99.90;;;;;;5127145;28;20581;-86
2021/01/09 12:15:00;;;;;;;19.88;11.68;;;2.60;99.90;;;;;;5126910;28;20469;-87
2021/01/09 12:17:27;;;;;;;24.45;15.18;;;2.60;99.90;;;;;;5126103;28;20600;-86
2021/01/09 12:20:18;;;;;;;21.73;14.05;;;2.70;99.90;;;;;;5125571;28;20435;-86
2021/01/09 12:22:50;;;;;;;22.13;12.88;;;2.80;99.90;;;;;;5126266;28;20224;-86
2021/01/09 12:25:17;;;;;;;23.88;12.73;;;2.80;99.90;;;;;;5126852;28;20277;-86
2021/01/09 12:27:49;;;;;;;19.17;10.77;;;2.80;99.90;;;;;;5126570;28;20204;-86
2021/01/09 12:30:17;;;;;;;24.15;12.75;;;2.80;99.90;;;;;;5125507;28;20185;-86
2021/01/09 12:32:43;;;;;;;20.23;11.13;;;2.80;99.90;;;;;;5128730;28;20256;-85
2021/01/09 12:35:10;;;;;;;20.95;13.48;;;2.80;99.90;;;;;;5131110;28;20264;-86
2021/01/09 12:37:37;;;;;;;21.55;12.13;;;2.60;99.90;;;;;;5131342;28;20205;-86
2021/01/09 12:40:06;;;;;;;18.52;11.15;;;2.50;99.90;;;;;;5129695;28;20236;-85
2021/01/09 12:42:32;;;;;;;22.58;11.73;;;2.60;99.90;;;;;;5127009;28;20205;-86
2021/01/09 12:45:01;;;;;;;22.13;12.02;;;2.60;99.90;;;;;;5124646;28;20239;-85
2021/01/09 12:47:27;;;;;;;17.92;11.40;;;2.60;99.90;;;;;;5126295;28;20234;-86
2021/01/09 12:49:53;;;;;;;17.10;11.20;;;2.70;99.90;;;;;;5124885;28;20301;-86
2021/01/09 12:52:20;;;;;;;16.55;10.23;;;2.70;99.90;;;;;;5128254;28;20242;-85
2021/01/09 12:54:46;;;;;;;17.25;9.85;;;2.80;99.90;;;;;;5125055;28;20189;-87
2021/01/09 12:57:13;;;;;;;17.00;11.13;;;2.90;99.90;;;;;;5124147;27;20240;-85
2021/01/09 12:59:40;;;;;;;15.05;10.43;;;2.90;99.90;;;;;;5126159;28;20331;-86
2021/01/09 13:02:07;;;;;;;20.95;12.40;;;2.80;99.90;;;;;;5127188;28;20205;-86
2021/01/09 13:04:33;;;;;;;17.90;10.50;;;2.90;99.90;;;;;;5129339;28;20205;-87
2021/01/09 13:07:01;;;;;;;15.57;10.90;;;2.60;99.90;;;;;;5125369;28;20236;-86
2021/01/09 13:09:29;;;;;;;18.55;10.90;;;2.80;99.90;;;;;;5124050;28;20217;-85
2021/01/09 13:11:59;;;;;;;20.38;11.50;;;3.00;99.90;;;;;;5125213;28;20292;-86
2021/01/09 13:14:26;;;;;;;21.40;12.50;;;2.90;99.90;;;;;;5123944;28;20333;-85
2021/01/09 13:16:56;;;;;;;19.92;11.48;;;2.80;99.90;;;;;;5123669;28;20632;-86
2021/01/09 13:19:23;;;;;;;19.98;11.80;;;2.90;99.90;;;;;;5124780;28;20221;-86
2021/01/09 13:21:53;;;;;;;20.30;11.60;;;3.00;99.90;;;;;;5124162;28;20297;-85
2021/01/09 13:24:20;;;;;;;20.27;12.48;;;2.90;99.90;;;;;;5124599;28;20660;-86
2021/01/09 13:26:46;;;;;;;21.23;13.30;;;2.90;99.90;;;;;;5122632;28;20593;-86
2021/01/09 13:29:13;;;;;;;20.27;13.75;;;3.00;99.90;;;;;;5123576;28;20804;-87
2021/01/09 13:31:41;;;;;;;30.80;14.43;;;3.00;99.90;;;;;;5123704;28;20269;-86
2021/01/09 13:34:28;;;;;;;29.77;16.25;;;3.00;99.90;;;;;;5123610;28;20652;-85
2021/01/09 13:36:54;;;;;;;28.15;15.75;;;3.00;99.90;;;;;;5125796;28;20205;-86
2021/01/09 13:39:20;;;;;;;26.10;15.90;;;3.10;99.90;;;;;;5125913;28;20221;-86
2021/01/09 13:41:47;;;;;;;31.48;17.25;;;3.00;99.90;;;;;;5130095;28;20223;-86
2021/01/09 13:44:13;;;;;;;23.70;13.63;;;3.00;99.90;;;;;;5136542;28;20570;-85
2021/01/09 13:46:42;;;;;;;24.77;14.93;;;2.90;99.90;;;;;;5132127;28;20220;-86
2021/01/09 13:49:10;;;;;;;25.88;16.00;;;3.00;99.90;;;;;;5126286;28;20225;-86
2021/01/09 13:51:37;;;;;;;21.70;13.02;;;2.90;99.90;;;;;;5122809;28;20296;-86
2021/01/09 13:54:05;;;;;;;25.85;16.02;;;3.00;99.90;;;;;;5122866;28;20208;-86
2021/01/09 13:56:38;;;;;;;22.63;14.57;;;3.00;99.90;;;;;;5123527;28;20209;-85
2021/01/09 13:59:06;;;;;;;28.95;17.50;;;3.20;99.90;;;;;;5122889;28;20244;-86
2021/01/09 14:01:33;;;;;;;28.48;16.13;;;3.10;99.90;;;;;;5123726;28;20205;-86